sensor_id;sensor_type;location;lat;lon;timestamp;temperature;humidity
20349;DHT22;10332;50.208;18.988;2023-02-01T00:01:10;2.30;99.90
20349;DHT22;10332;50.208;18.988;2023-02-01T00:03:37;2.30;99.90
20349;DHT22;10332;50.208;18.988;2023-02-01T00:06:05;2.30;99.90
20349;DHT22;10332;50.208;18.988;2023-02-01T00:08:32;2.40;99.90
20349;DHT22;10332;50.208;18.988;2023-02-01T00:11:09;2.30;99.90
20349;DHT22;10332;50.208;18.988;2023-02-01T00:13:39;2.20;99.90
20349;DHT22;10332;50.208;18.988;2023-02-01T00:16:17;2.20;99.90
20349;DHT22;10332;50.208;18.988;2023-02-01T00:18:47;2.20;99.90
20349;DHT22;10332;50.208;18.988;2023-02-01T00:21:19;2.10;99.90
20349;DHT22;10332;50.208;18.988;2023-02-01T00:23:47;2.10;99.90
20349;DHT22;10332;50.208;18.988;2023-02-01T00:26:17;2.10;99.90
20349;DHT22;10332;50.208;18.988;2023-02-01T00:28:46;2.10;99.90
20349;DHT22;10332;50.208;18.988;2023-02-01T00:31:14;2.20;99.90
20349;DHT22;10332;50.208;18.988;2023-02-01T00:33:42;2.20;99.90
20349;DHT22;10332;50.208;18.988;2023-02-01T00:36:10;2.30;99.90
20349;DHT22;10332;50.208;18.988;2023-02-01T00:38:38;2.30;99.90
20349;DHT22;10332;50.208;18.988;2023-02-01T00:41:17;2.40;99.90
20349;DHT22;10332;50.208;18.988;2023-02-01T00:43:46;2.40;99.90
20349;DHT22;10332;50.208;18.988;2023-02-01T00:46:16;2.50;99.90
20349;DHT22;10332;50.208;18.988;2023-02-01T00:48:45;2.60;99.90
20349;DHT22;10332;50.208;18.988;2023-02-01T00:51:15;2.70;99.90
20349;DHT22;10332;50.208;18.988;2023-02-01T00:53:45;2.70;99.90
20349;DHT22;10332;50.208;18.988;2023-02-01T00:56:13;2.80;99.90
20349;DHT22;10332;50.208;18.988;2023-02-01T00:58:40;2.90;99.90
20349;DHT22;10332;50.208;18.988;2023-02-01T01:01:17;2.90;99.90
20349;DHT22;10332;50.208;18.988;2023-02-01T01:03:52;3.10;99.90
20349;DHT22;10332;50.208;18.988;2023-02-01T01:06:25;3.10;99.90
20349;DHT22;10332;50.208;18.988;2023-02-01T01:08:56;3.20;99.90
20349;DHT22;10332;50.208;18.988;2023-02-01T01:11:29;3.10;99.90
20349;DHT22;10332;50.208;18.988;2023-02-01T01:13:58;3.00;99.90
20349;DHT22;10332;50.208;18.988;2023-02-01T01:16:28;3.00;99.90
20349;DHT22;10332;50.208;18.988;2023-02-01T01:18:57;2.90;99.90
20349;DHT22;10332;50.208;18.988;2023-02-01T01:21:27;2.80;99.90
20349;DHT22;10332;50.208;18.988;2023-02-01T01:23:55;2.70;99.90
20349;DHT22;10332;50.208;18.988;2023-02-01T01:26:25;2.60;99.90
20349;DHT22;10332;50.208;18.988;2023-02-01T01:28:56;2.60;99.90
20349;DHT22;10332;50.208;18.988;2023-02-01T01:31:25;2.50;99.90
20349;DHT22;10332;50.208;18.988;2023-02-01T01:33:54;2.30;99.90
20349;DHT22;10332;50.208;18.988;2023-02-01T01:36:25;2.20;99.90
20349;DHT22;10332;50.208;18.988;2023-02-01T01:38:53;2.20;99.90
20349;DHT22;10332;50.208;18.988;2023-02-01T01:41:28;2.10;99.90
20349;DHT22;10332;50.208;18.988;2023-02-01T01:44:04;2.00;99.90
20349;DHT22;10332;50.208;18.988;2023-02-01T01:46:36;2.00;99.90
20349;DHT22;10332;50.208;18.988;2023-02-01T01:49:22;2.00;99.90
20349;DHT22;10332;50.208;18.988;2023-02-01T01:51:57;1.90;99.90
20349;DHT22;10332;50.208;18.988;2023-02-01T01:54:33;1.90;99.90
20349;DHT22;10332;50.208;18.988;2023-02-01T01:57:32;1.80;99.90
20349;DHT22;10332;50.208;18.988;2023-02-01T02:00:07;1.70;99.90
20349;DHT22;10332;50.208;18.988;2023-02-01T02:02:39;1.70;99.90
20349;DHT22;10332;50.208;18.988;2023-02-01T02:05:10;1.60;99.90
20349;DHT22;10332;50.208;18.988;2023-02-01T02:07:42;1.60;99.90
20349;DHT22;10332;50.208;18.988;2023-02-01T02:10:15;1.60;99.90
20349;DHT22;10332;50.208;18.988;2023-02-01T02:12:45;1.50;99.90
20349;DHT22;10332;50.208;18.988;2023-02-01T02:15:16;1.50;99.90
20349;DHT22;10332;50.208;18.988;2023-02-01T02:18:01;1.60;99.90
20349;DHT22;10332;50.208;18.988;2023-02-01T02:26:21;1.60;99.90
20349;DHT22;10332;50.208;18.988;2023-02-01T02:31:46;1.70;99.90
20349;DHT22;10332;50.208;18.988;2023-02-01T02:34:46;1.70;99.90
20349;DHT22;10332;50.208;18.988;2023-02-01T02:37:38;1.70;99.90
20349;DHT22;10332;50.208;18.988;2023-02-01T02:43:05;1.70;99.90
20349;DHT22;10332;50.208;18.988;2023-02-01T02:49:15;1.70;99.90
20349;DHT22;10332;50.208;18.988;2023-02-01T02:51:57;1.70;99.90
20349;DHT22;10332;50.208;18.988;2023-02-01T02:54:48;1.60;99.90
20349;DHT22;10332;50.208;18.988;2023-02-01T03:00:18;1.60;99.90
20349;DHT22;10332;50.208;18.988;2023-02-01T03:03:07;1.60;99.90
20349;DHT22;10332;50.208;18.988;2023-02-01T03:05:53;1.60;99.90
20349;DHT22;10332;50.208;18.988;2023-02-01T03:08:23;1.60;99.90
20349;DHT22;10332;50.208;18.988;2023-02-01T03:11:06;1.70;99.90
20349;DHT22;10332;50.208;18.988;2023-02-01T03:13:56;1.70;99.90
20349;DHT22;10332;50.208;18.988;2023-02-01T03:16:31;1.70;99.90
20349;DHT22;10332;50.208;18.988;2023-02-01T03:19:14;1.70;99.90
20349;DHT22;10332;50.208;18.988;2023-02-01T03:21:49;1.70;99.90
20349;DHT22;10332;50.208;18.988;2023-02-01T03:27:22;1.70;99.90
20349;DHT22;10332;50.208;18.988;2023-02-01T03:32:47;1.70;99.90
20349;DHT22;10332;50.208;18.988;2023-02-01T03:41:46;1.70;99.90
20349;DHT22;10332;50.208;18.988;2023-02-01T03:44:44;1.60;99.90
20349;DHT22;10332;50.208;18.988;2023-02-01T03:47:23;1.50;99.90
20349;DHT22;10332;50.208;18.988;2023-02-01T03:49:57;1.50;99.90
20349;DHT22;10332;50.208;18.988;2023-02-01T03:52:37;1.50;99.90
20349;DHT22;10332;50.208;18.988;2023-02-01T03:55:08;1.40;99.90
20349;DHT22;10332;50.208;18.988;2023-02-01T03:57:48;1.50;99.90
20349;DHT22;10332;50.208;18.988;2023-02-01T04:00:23;1.50;99.90
20349;DHT22;10332;50.208;18.988;2023-02-01T04:02:53;1.50;99.90
20349;DHT22;10332;50.208;18.988;2023-02-01T04:05:21;1.50;99.90
20349;DHT22;10332;50.208;18.988;2023-02-01T04:07:50;1.50;99.90
20349;DHT22;10332;50.208;18.988;2023-02-01T04:10:17;1.50;99.90
20349;DHT22;10332;50.208;18.988;2023-02-01T04:12:46;1.50;99.90
20349;DHT22;10332;50.208;18.988;2023-02-01T04:15:13;1.60;99.90
20349;DHT22;10332;50.208;18.988;2023-02-01T04:17:41;1.50;99.90
20349;DHT22;10332;50.208;18.988;2023-02-01T04:20:09;1.60;99.90
20349;DHT22;10332;50.208;18.988;2023-02-01T04:22:37;1.50;99.90
20349;DHT22;10332;50.208;18.988;2023-02-01T04:25:05;1.50;99.90
20349;DHT22;10332;50.208;18.988;2023-02-01T04:27:34;1.50;99.90
20349;DHT22;10332;50.208;18.988;2023-02-01T04:30:03;1.50;99.90
20349;DHT22;10332;50.208;18.988;2023-02-01T04:32:31;1.50;99.90
20349;DHT22;10332;50.208;18.988;2023-02-01T04:34:59;1.50;99.90
20349;DHT22;10332;50.208;18.988;2023-02-01T04:37:26;1.50;99.90
20349;DHT22;10332;50.208;18.988;2023-02-01T04:39:54;1.50;99.90
20349;DHT22;10332;50.208;18.988;2023-02-01T04:42:21;1.50;99.90
20349;DHT22;10332;50.208;18.988;2023-02-01T04:44:49;1.60;99.90
20349;DHT22;10332;50.208;18.988;2023-02-01T04:47:16;1.60;99.90
20349;DHT22;10332;50.208;18.988;2023-02-01T04:49:44;1.60;99.90
20349;DHT22;10332;50.208;18.988;2023-02-01T04:52:11;1.60;99.90
20349;DHT22;10332;50.208;18.988;2023-02-01T04:54:39;1.60;99.90
20349;DHT22;10332;50.208;18.988;2023-02-01T04:57:06;1.60;99.90
20349;DHT22;10332;50.208;18.988;2023-02-01T04:59:34;1.70;99.90
20349;DHT22;10332;50.208;18.988;2023-02-01T05:02:02;1.70;99.90
20349;DHT22;10332;50.208;18.988;2023-02-01T05:04:29;1.70;99.90
20349;DHT22;10332;50.208;18.988;2023-02-01T05:06:57;1.70;99.90
20349;DHT22;10332;50.208;18.988;2023-02-01T05:09:24;1.70;99.90
20349;DHT22;10332;50.208;18.988;2023-02-01T05:11:52;1.70;99.90
20349;DHT22;10332;50.208;18.988;2023-02-01T05:14:37;1.70;99.90
20349;DHT22;10332;50.208;18.988;2023-02-01T05:17:05;1.70;99.90
20349;DHT22;10332;50.208;18.988;2023-02-01T05:19:32;1.80;99.90
20349;DHT22;10332;50.208;18.988;2023-02-01T05:22:00;1.80;99.90
20349;DHT22;10332;50.208;18.988;2023-02-01T05:24:27;1.80;99.90
20349;DHT22;10332;50.208;18.988;2023-02-01T05:26:55;1.80;99.90
20349;DHT22;10332;50.208;18.988;2023-02-01T05:29:22;1.90;99.90
20349;DHT22;10332;50.208;18.988;2023-02-01T05:31:50;1.90;99.90
20349;DHT22;10332;50.208;18.988;2023-02-01T05:34:18;1.90;99.90
20349;DHT22;10332;50.208;18.988;2023-02-01T05:36:46;1.90;99.90
20349;DHT22;10332;50.208;18.988;2023-02-01T05:39:13;1.90;99.90
20349;DHT22;10332;50.208;18.988;2023-02-01T05:41:41;1.90;99.90
20349;DHT22;10332;50.208;18.988;2023-02-01T05:44:09;1.90;99.90
20349;DHT22;10332;50.208;18.988;2023-02-01T05:46:37;2.00;99.90
20349;DHT22;10332;50.208;18.988;2023-02-01T05:49:05;2.00;99.90
20349;DHT22;10332;50.208;18.988;2023-02-01T05:51:32;2.00;99.90
20349;DHT22;10332;50.208;18.988;2023-02-01T05:54:00;2.00;99.90
20349;DHT22;10332;50.208;18.988;2023-02-01T05:56:28;2.10;99.90
20349;DHT22;10332;50.208;18.988;2023-02-01T05:58:55;2.10;99.90
20349;DHT22;10332;50.208;18.988;2023-02-01T06:01:23;2.10;99.90
20349;DHT22;10332;50.208;18.988;2023-02-01T06:03:50;2.20;99.90
20349;DHT22;10332;50.208;18.988;2023-02-01T06:06:18;2.20;99.90
20349;DHT22;10332;50.208;18.988;2023-02-01T06:08:46;2.20;99.90
20349;DHT22;10332;50.208;18.988;2023-02-01T06:11:14;2.20;99.90
20349;DHT22;10332;50.208;18.988;2023-02-01T06:13:57;2.30;99.90
20349;DHT22;10332;50.208;18.988;2023-02-01T06:16:27;2.30;99.90
20349;DHT22;10332;50.208;18.988;2023-02-01T06:18:54;2.40;99.90
20349;DHT22;10332;50.208;18.988;2023-02-01T06:21:22;2.30;99.90
20349;DHT22;10332;50.208;18.988;2023-02-01T06:23:53;2.30;99.90
20349;DHT22;10332;50.208;18.988;2023-02-01T06:26:21;2.30;99.90
20349;DHT22;10332;50.208;18.988;2023-02-01T06:28:49;2.40;99.90
20349;DHT22;10332;50.208;18.988;2023-02-01T06:31:17;2.30;99.90
20349;DHT22;10332;50.208;18.988;2023-02-01T06:33:44;2.40;99.90
20349;DHT22;10332;50.208;18.988;2023-02-01T06:36:14;2.30;99.90
20349;DHT22;10332;50.208;18.988;2023-02-01T06:38:42;2.40;99.90
20349;DHT22;10332;50.208;18.988;2023-02-01T06:41:10;2.40;99.90
20349;DHT22;10332;50.208;18.988;2023-02-01T06:43:38;2.40;99.90
20349;DHT22;10332;50.208;18.988;2023-02-01T06:46:07;2.40;99.90
20349;DHT22;10332;50.208;18.988;2023-02-01T06:48:38;2.50;99.90
20349;DHT22;10332;50.208;18.988;2023-02-01T06:51:06;2.50;99.90
20349;DHT22;10332;50.208;18.988;2023-02-01T06:53:43;2.50;99.90
20349;DHT22;10332;50.208;18.988;2023-02-01T06:56:11;2.50;99.90
20349;DHT22;10332;50.208;18.988;2023-02-01T06:58:38;2.60;99.90
20349;DHT22;10332;50.208;18.988;2023-02-01T07:01:07;2.60;99.90
20349;DHT22;10332;50.208;18.988;2023-02-01T07:03:37;2.70;99.90
20349;DHT22;10332;50.208;18.988;2023-02-01T07:06:06;2.70;99.90
20349;DHT22;10332;50.208;18.988;2023-02-01T07:08:36;2.70;99.90
20349;DHT22;10332;50.208;18.988;2023-02-01T07:11:06;2.70;99.90
20349;DHT22;10332;50.208;18.988;2023-02-01T07:13:36;2.80;99.90
20349;DHT22;10332;50.208;18.988;2023-02-01T07:16:06;2.80;99.90
20349;DHT22;10332;50.208;18.988;2023-02-01T07:18:38;2.80;99.90
20349;DHT22;10332;50.208;18.988;2023-02-01T07:21:06;2.90;99.90
20349;DHT22;10332;50.208;18.988;2023-02-01T07:23:33;3.00;99.90
20349;DHT22;10332;50.208;18.988;2023-02-01T07:26:04;3.10;99.90
20349;DHT22;10332;50.208;18.988;2023-02-01T07:28:34;3.10;99.90
20349;DHT22;10332;50.208;18.988;2023-02-01T07:31:11;3.20;99.90
20349;DHT22;10332;50.208;18.988;2023-02-01T07:33:42;3.20;99.90
20349;DHT22;10332;50.208;18.988;2023-02-01T07:36:15;3.30;99.90
20349;DHT22;10332;50.208;18.988;2023-02-01T07:38:43;3.30;99.90
20349;DHT22;10332;50.208;18.988;2023-02-01T07:41:12;3.30;99.90
20349;DHT22;10332;50.208;18.988;2023-02-01T07:43:39;3.30;99.90
20349;DHT22;10332;50.208;18.988;2023-02-01T07:46:07;3.30;99.90
20349;DHT22;10332;50.208;18.988;2023-02-01T07:48:37;3.30;99.90
20349;DHT22;10332;50.208;18.988;2023-02-01T07:51:10;3.30;99.90
20349;DHT22;10332;50.208;18.988;2023-02-01T07:53:41;3.40;99.90
20349;DHT22;10332;50.208;18.988;2023-02-01T07:56:19;3.40;99.90
20349;DHT22;10332;50.208;18.988;2023-02-01T07:58:50;3.40;99.90
20349;DHT22;10332;50.208;18.988;2023-02-01T08:01:21;3.40;99.90
20349;DHT22;10332;50.208;18.988;2023-02-01T08:03:58;3.40;99.90
20349;DHT22;10332;50.208;18.988;2023-02-01T08:06:29;3.40;99.90
20349;DHT22;10332;50.208;18.988;2023-02-01T08:08:58;3.50;99.90
20349;DHT22;10332;50.208;18.988;2023-02-01T08:11:27;3.50;99.90
20349;DHT22;10332;50.208;18.988;2023-02-01T08:13:55;3.50;99.90
20349;DHT22;10332;50.208;18.988;2023-02-01T08:16:23;3.50;99.90
20349;DHT22;10332;50.208;18.988;2023-02-01T08:18:51;3.50;99.90
20349;DHT22;10332;50.208;18.988;2023-02-01T08:21:23;3.50;99.90
20349;DHT22;10332;50.208;18.988;2023-02-01T08:23:52;3.50;99.90
20349;DHT22;10332;50.208;18.988;2023-02-01T08:26:23;3.50;99.90
20349;DHT22;10332;50.208;18.988;2023-02-01T08:28:54;3.50;99.90
20349;DHT22;10332;50.208;18.988;2023-02-01T08:31:25;3.60;99.90
20349;DHT22;10332;50.208;18.988;2023-02-01T08:33:57;3.60;99.90
20349;DHT22;10332;50.208;18.988;2023-02-01T08:36:28;3.60;99.90
20349;DHT22;10332;50.208;18.988;2023-02-01T08:38:57;3.70;99.90
20349;DHT22;10332;50.208;18.988;2023-02-01T08:41:27;3.70;99.90
20349;DHT22;10332;50.208;18.988;2023-02-01T08:43:57;3.80;99.90
20349;DHT22;10332;50.208;18.988;2023-02-01T08:46:25;3.80;99.90
20349;DHT22;10332;50.208;18.988;2023-02-01T08:48:53;3.90;99.90
20349;DHT22;10332;50.208;18.988;2023-02-01T08:51:22;3.90;99.90
20349;DHT22;10332;50.208;18.988;2023-02-01T08:53:50;3.90;99.90
20349;DHT22;10332;50.208;18.988;2023-02-01T08:56:19;3.90;99.90
20349;DHT22;10332;50.208;18.988;2023-02-01T08:58:47;3.90;99.90
20349;DHT22;10332;50.208;18.988;2023-02-01T09:01:16;4.00;99.90
20349;DHT22;10332;50.208;18.988;2023-02-01T09:03:44;4.00;99.90
20349;DHT22;10332;50.208;18.988;2023-02-01T09:06:14;4.00;99.90
20349;DHT22;10332;50.208;18.988;2023-02-01T09:08:43;4.00;99.90
20349;DHT22;10332;50.208;18.988;2023-02-01T09:11:14;4.00;99.90
20349;DHT22;10332;50.208;18.988;2023-02-01T09:13:43;4.00;99.90
20349;DHT22;10332;50.208;18.988;2023-02-01T09:16:11;4.00;99.90
20349;DHT22;10332;50.208;18.988;2023-02-01T09:18:39;4.00;99.90
20349;DHT22;10332;50.208;18.988;2023-02-01T09:21:28;4.10;99.90
20349;DHT22;10332;50.208;18.988;2023-02-01T09:23:56;4.10;99.90
20349;DHT22;10332;50.208;18.988;2023-02-01T09:26:24;4.10;99.90
20349;DHT22;10332;50.208;18.988;2023-02-01T09:28:59;4.20;99.90
20349;DHT22;10332;50.208;18.988;2023-02-01T09:31:27;4.30;99.90
20349;DHT22;10332;50.208;18.988;2023-02-01T09:33:55;4.40;99.90
20349;DHT22;10332;50.208;18.988;2023-02-01T09:36:23;4.50;99.90
20349;DHT22;10332;50.208;18.988;2023-02-01T09:38:50;4.70;99.90
20349;DHT22;10332;50.208;18.988;2023-02-01T09:47:25;4.90;99.30
20349;DHT22;10332;50.208;18.988;2023-02-01T09:50:03;5.20;98.20
20349;DHT22;10332;50.208;18.988;2023-02-01T09:52:41;5.30;95.80
20349;DHT22;10332;50.208;18.988;2023-02-01T09:58:22;5.40;94.60
20349;DHT22;10332;50.208;18.988;2023-02-01T10:01:15;6.00;85.80
20349;DHT22;10332;50.208;18.988;2023-02-01T10:03:48;6.60;75.60
20349;DHT22;10332;50.208;18.988;2023-02-01T10:09:16;6.70;60.10
20349;DHT22;10332;50.208;18.988;2023-02-01T10:24:22;6.20;61.50
20349;DHT22;10332;50.208;18.988;2023-02-01T10:27:22;6.00;64.70
20349;DHT22;10332;50.208;18.988;2023-02-01T10:30:01;5.80;66.50
20349;DHT22;10332;50.208;18.988;2023-02-01T10:32:39;5.70;69.80
20349;DHT22;10332;50.208;18.988;2023-02-01T10:35:31;5.70;70.40
20349;DHT22;10332;50.208;18.988;2023-02-01T10:38:29;5.80;69.20
20349;DHT22;10332;50.208;18.988;2023-02-01T10:41:01;5.60;70.00
20349;DHT22;10332;50.208;18.988;2023-02-01T10:43:37;5.40;71.60
20349;DHT22;10332;50.208;18.988;2023-02-01T10:46:07;5.30;74.40
20349;DHT22;10332;50.208;18.988;2023-02-01T10:48:36;5.10;77.60
20349;DHT22;10332;50.208;18.988;2023-02-01T10:51:24;5.00;78.30
20349;DHT22;10332;50.208;18.988;2023-02-01T10:54:00;4.90;82.50
20349;DHT22;10332;50.208;18.988;2023-02-01T10:56:37;4.80;85.10
20349;DHT22;10332;50.208;18.988;2023-02-01T10:59:13;4.80;87.10
20349;DHT22;10332;50.208;18.988;2023-02-01T11:01:50;4.70;89.40
20349;DHT22;10332;50.208;18.988;2023-02-01T11:04:26;4.70;89.20
20349;DHT22;10332;50.208;18.988;2023-02-01T11:07:06;4.60;90.80
20349;DHT22;10332;50.208;18.988;2023-02-01T11:09:53;4.70;91.60
20349;DHT22;10332;50.208;18.988;2023-02-01T11:12:35;4.60;92.00
20349;DHT22;10332;50.208;18.988;2023-02-01T11:15:20;4.70;93.20
20349;DHT22;10332;50.208;18.988;2023-02-01T11:17:51;4.80;92.80
20349;DHT22;10332;50.208;18.988;2023-02-01T11:22:59;4.90;91.40
20349;DHT22;10332;50.208;18.988;2023-02-01T11:25:28;4.90;91.20
20349;DHT22;10332;50.208;18.988;2023-02-01T11:27:57;5.00;92.00
20349;DHT22;10332;50.208;18.988;2023-02-01T11:30:53;5.00;92.00
20349;DHT22;10332;50.208;18.988;2023-02-01T11:33:27;4.90;92.60
20349;DHT22;10332;50.208;18.988;2023-02-01T11:36:14;5.00;92.30
20349;DHT22;10332;50.208;18.988;2023-02-01T11:41:57;5.20;91.60
20349;DHT22;10332;50.208;18.988;2023-02-01T11:44:34;5.80;90.60
20349;DHT22;10332;50.208;18.988;2023-02-01T11:50:00;7.00;71.10
20349;DHT22;10332;50.208;18.988;2023-02-01T11:55:18;6.50;70.80
20349;DHT22;10332;50.208;18.988;2023-02-01T11:58:02;6.10;75.20
20349;DHT22;10332;50.208;18.988;2023-02-01T12:04:07;5.80;82.00
20349;DHT22;10332;50.208;18.988;2023-02-01T12:09:44;5.80;82.00
20349;DHT22;10332;50.208;18.988;2023-02-01T12:13:06;5.60;82.80
20349;DHT22;10332;50.208;18.988;2023-02-01T12:16:02;5.50;87.60
20349;DHT22;10332;50.208;18.988;2023-02-01T12:18:45;5.50;86.00
20349;DHT22;10332;50.208;18.988;2023-02-01T12:27:49;5.70;82.60
20349;DHT22;10332;50.208;18.988;2023-02-01T12:42:14;5.20;87.20
20349;DHT22;10332;50.208;18.988;2023-02-01T12:44:52;5.20;89.40
20349;DHT22;10332;50.208;18.988;2023-02-01T12:47:38;5.10;90.40
20349;DHT22;10332;50.208;18.988;2023-02-01T12:50:28;5.00;91.00
20349;DHT22;10332;50.208;18.988;2023-02-01T12:55:58;4.90;93.30
20349;DHT22;10332;50.208;18.988;2023-02-01T12:58:52;4.90;92.80
20349;DHT22;10332;50.208;18.988;2023-02-01T13:01:58;5.00;93.70
20349;DHT22;10332;50.208;18.988;2023-02-01T13:05:04;5.20;92.50
20349;DHT22;10332;50.208;18.988;2023-02-01T13:08:03;5.40;90.30
20349;DHT22;10332;50.208;18.988;2023-02-01T13:10:43;5.50;90.00
20349;DHT22;10332;50.208;18.988;2023-02-01T13:13:22;5.40;89.80
20349;DHT22;10332;50.208;18.988;2023-02-01T13:16:25;5.30;90.30
20349;DHT22;10332;50.208;18.988;2023-02-01T13:19:26;5.10;91.20
20349;DHT22;10332;50.208;18.988;2023-02-01T13:22:19;5.10;92.70
20349;DHT22;10332;50.208;18.988;2023-02-01T13:25:13;5.10;92.50
20349;DHT22;10332;50.208;18.988;2023-02-01T13:34:39;5.20;88.80
20349;DHT22;10332;50.208;18.988;2023-02-01T13:38:09;5.10;90.50
20349;DHT22;10332;50.208;18.988;2023-02-01T13:40:55;5.00;91.00
20349;DHT22;10332;50.208;18.988;2023-02-01T13:43:33;5.00;91.70
20349;DHT22;10332;50.208;18.988;2023-02-01T13:46:07;4.90;92.20
20349;DHT22;10332;50.208;18.988;2023-02-01T13:48:50;4.80;93.10
20349;DHT22;10332;50.208;18.988;2023-02-01T13:51:43;4.70;94.70
20349;DHT22;10332;50.208;18.988;2023-02-01T13:54:30;4.50;98.70
20349;DHT22;10332;50.208;18.988;2023-02-01T13:57:01;4.40;99.90
20349;DHT22;10332;50.208;18.988;2023-02-01T14:13:35;3.70;99.90
20349;DHT22;10332;50.208;18.988;2023-02-01T14:24:02;3.40;99.90
20349;DHT22;10332;50.208;18.988;2023-02-01T14:42:29;2.90;99.90
20349;DHT22;10332;50.208;18.988;2023-02-01T14:53:14;3.00;99.90
20349;DHT22;10332;50.208;18.988;2023-02-01T14:58:47;2.90;99.90
20349;DHT22;10332;50.208;18.988;2023-02-01T15:01:33;3.00;99.90
20349;DHT22;10332;50.208;18.988;2023-02-01T15:09:31;2.90;99.90
20349;DHT22;10332;50.208;18.988;2023-02-01T15:12:14;3.00;99.90
20349;DHT22;10332;50.208;18.988;2023-02-01T15:14:47;3.00;99.90
20349;DHT22;10332;50.208;18.988;2023-02-01T15:17:31;3.00;99.90
20349;DHT22;10332;50.208;18.988;2023-02-01T15:22:39;3.10;99.90
20349;DHT22;10332;50.208;18.988;2023-02-01T15:25:19;3.10;99.90
20349;DHT22;10332;50.208;18.988;2023-02-01T15:27:49;3.20;99.90
20349;DHT22;10332;50.208;18.988;2023-02-01T15:30:28;3.20;99.90
20349;DHT22;10332;50.208;18.988;2023-02-01T15:33:24;3.20;99.90
20349;DHT22;10332;50.208;18.988;2023-02-01T15:36:40;3.20;99.90
20349;DHT22;10332;50.208;18.988;2023-02-01T15:38:45;3.30;99.90
20349;DHT22;10332;50.208;18.988;2023-02-01T15:41:20;3.40;99.90
20349;DHT22;10332;50.208;18.988;2023-02-01T15:49:19;3.50;99.90
20349;DHT22;10332;50.208;18.988;2023-02-01T15:51:57;3.50;99.90
20349;DHT22;10332;50.208;18.988;2023-02-01T15:54:32;3.60;99.90
20349;DHT22;10332;50.208;18.988;2023-02-01T15:57:11;3.70;99.90
20349;DHT22;10332;50.208;18.988;2023-02-01T15:59:46;3.60;99.90
20349;DHT22;10332;50.208;18.988;2023-02-01T16:02:32;3.50;99.90
20349;DHT22;10332;50.208;18.988;2023-02-01T16:05:53;3.50;99.90
20349;DHT22;10332;50.208;18.988;2023-02-01T16:08:25;3.50;99.90
20349;DHT22;10332;50.208;18.988;2023-02-01T16:11:22;3.50;99.90
20349;DHT22;10332;50.208;18.988;2023-02-01T16:13:59;3.40;99.90
20349;DHT22;10332;50.208;18.988;2023-02-01T16:16:28;3.40;99.90
20349;DHT22;10332;50.208;18.988;2023-02-01T16:18:56;3.40;99.90
20349;DHT22;10332;50.208;18.988;2023-02-01T16:21:24;3.40;99.90
20349;DHT22;10332;50.208;18.988;2023-02-01T16:23:52;3.40;99.90
20349;DHT22;10332;50.208;18.988;2023-02-01T16:26:20;3.40;99.90
20349;DHT22;10332;50.208;18.988;2023-02-01T16:28:48;3.50;99.90
20349;DHT22;10332;50.208;18.988;2023-02-01T16:31:17;3.40;99.90
20349;DHT22;10332;50.208;18.988;2023-02-01T16:33:50;3.50;99.90
20349;DHT22;10332;50.208;18.988;2023-02-01T16:36:19;3.50;99.90
20349;DHT22;10332;50.208;18.988;2023-02-01T16:38:49;3.50;99.90
20349;DHT22;10332;50.208;18.988;2023-02-01T16:41:21;3.60;99.90
20349;DHT22;10332;50.208;18.988;2023-02-01T16:43:53;3.50;99.90
20349;DHT22;10332;50.208;18.988;2023-02-01T16:46:23;3.40;99.90
20349;DHT22;10332;50.208;18.988;2023-02-01T16:48:55;3.40;99.90
20349;DHT22;10332;50.208;18.988;2023-02-01T16:51:27;3.40;99.90
20349;DHT22;10332;50.208;18.988;2023-02-01T16:54:00;3.30;99.90
20349;DHT22;10332;50.208;18.988;2023-02-01T16:56:31;3.30;99.90
20349;DHT22;10332;50.208;18.988;2023-02-01T16:59:00;3.30;99.90
20349;DHT22;10332;50.208;18.988;2023-02-01T17:01:28;3.30;99.90
20349;DHT22;10332;50.208;18.988;2023-02-01T17:03:55;3.30;99.90
20349;DHT22;10332;50.208;18.988;2023-02-01T17:06:24;3.30;99.90
20349;DHT22;10332;50.208;18.988;2023-02-01T17:08:56;3.40;99.90
20349;DHT22;10332;50.208;18.988;2023-02-01T17:11:26;3.40;99.90
20349;DHT22;10332;50.208;18.988;2023-02-01T17:14:07;3.40;99.90
20349;DHT22;10332;50.208;18.988;2023-02-01T17:16:42;3.40;99.90
20349;DHT22;10332;50.208;18.988;2023-02-01T17:19:16;3.50;99.90
20349;DHT22;10332;50.208;18.988;2023-02-01T17:21:51;3.50;99.90
20349;DHT22;10332;50.208;18.988;2023-02-01T17:24:25;3.40;99.90
20349;DHT22;10332;50.208;18.988;2023-02-01T17:27:14;3.40;99.90
20349;DHT22;10332;50.208;18.988;2023-02-01T17:29:43;3.30;99.90
20349;DHT22;10332;50.208;18.988;2023-02-01T17:32:22;3.30;99.90
20349;DHT22;10332;50.208;18.988;2023-02-01T17:34:51;3.30;99.90
20349;DHT22;10332;50.208;18.988;2023-02-01T17:37:28;3.20;99.90
20349;DHT22;10332;50.208;18.988;2023-02-01T17:40:00;3.30;99.90
20349;DHT22;10332;50.208;18.988;2023-02-01T17:42:29;3.30;99.90
20349;DHT22;10332;50.208;18.988;2023-02-01T17:47:52;3.40;99.90
20349;DHT22;10332;50.208;18.988;2023-02-01T17:50:29;3.40;99.90
20349;DHT22;10332;50.208;18.988;2023-02-01T17:52:58;3.40;99.90
20349;DHT22;10332;50.208;18.988;2023-02-01T17:55:26;3.40;99.90
20349;DHT22;10332;50.208;18.988;2023-02-01T17:57:53;3.40;99.90
20349;DHT22;10332;50.208;18.988;2023-02-01T18:36:18;2.90;99.90
20349;DHT22;10332;50.208;18.988;2023-02-01T18:38:47;2.90;99.90
20349;DHT22;10332;50.208;18.988;2023-02-01T18:41:19;2.90;99.90
20349;DHT22;10332;50.208;18.988;2023-02-01T18:43:49;3.00;99.90
20349;DHT22;10332;50.208;18.988;2023-02-01T18:46:17;3.00;99.90
20349;DHT22;10332;50.208;18.988;2023-02-01T18:48:45;3.10;99.90
20349;DHT22;10332;50.208;18.988;2023-02-01T18:51:18;3.20;99.90
20349;DHT22;10332;50.208;18.988;2023-02-01T18:53:47;3.20;99.90
20349;DHT22;10332;50.208;18.988;2023-02-01T18:56:16;3.30;99.90
20349;DHT22;10332;50.208;18.988;2023-02-01T18:58:47;3.20;99.90
20349;DHT22;10332;50.208;18.988;2023-02-01T19:01:17;3.20;99.90
20349;DHT22;10332;50.208;18.988;2023-02-01T19:03:48;3.20;99.90
20349;DHT22;10332;50.208;18.988;2023-02-01T19:06:34;3.20;99.90
20349;DHT22;10332;50.208;18.988;2023-02-01T19:09:02;3.30;99.90
20349;DHT22;10332;50.208;18.988;2023-02-01T19:11:29;3.20;99.90
20349;DHT22;10332;50.208;18.988;2023-02-01T19:13:57;3.20;99.90
20349;DHT22;10332;50.208;18.988;2023-02-01T19:16:24;3.20;99.90
20349;DHT22;10332;50.208;18.988;2023-02-01T19:18:52;3.10;99.90
20349;DHT22;10332;50.208;18.988;2023-02-01T19:21:20;3.10;99.90
20349;DHT22;10332;50.208;18.988;2023-02-01T19:23:47;3.10;99.90
20349;DHT22;10332;50.208;18.988;2023-02-01T19:26:16;3.10;99.90
20349;DHT22;10332;50.208;18.988;2023-02-01T19:28:44;3.10;99.90
20349;DHT22;10332;50.208;18.988;2023-02-01T19:31:14;3.20;99.90
20349;DHT22;10332;50.208;18.988;2023-02-01T19:33:43;3.20;99.90